sensor_id;sensor_type;location;lat;lon;timestamp;P1;durP1;ratioP1;P2;durP2;ratioP2
68989;SDS011;56046;47.270;11.368;2023-04-03T00:01:11;1.57;;;0.90;;
68989;SDS011;56046;47.270;11.368;2023-04-03T00:03:36;2.38;;;0.98;;
68989;SDS011;56046;47.270;11.368;2023-04-03T00:06:02;2.63;;;0.90;;
68989;SDS011;56046;47.270;11.368;2023-04-03T00:08:27;2.20;;;0.83;;
68989;SDS011;56046;47.270;11.368;2023-04-03T00:10:55;1.83;;;0.95;;
68989;SDS011;56046;47.270;11.368;2023-04-03T00:13:20;2.07;;;0.97;;
68989;SDS011;56046;47.270;11.368;2023-04-03T00:15:46;2.27;;;0.80;;
68989;SDS011;56046;47.270;11.368;2023-04-03T00:18:11;2.13;;;1.13;;
68989;SDS011;56046;47.270;11.368;2023-04-03T00:20:36;1.93;;;1.00;;
68989;SDS011;56046;47.270;11.368;2023-04-03T00:23:02;1.85;;;0.80;;
68989;SDS011;56046;47.270;11.368;2023-04-03T00:25:27;3.07;;;1.10;;
68989;SDS011;56046;47.270;11.368;2023-04-03T00:27:53;3.43;;;0.80;;
68989;SDS011;56046;47.270;11.368;2023-04-03T00:30:18;4.20;;;1.20;;
68989;SDS011;56046;47.270;11.368;2023-04-03T00:32:44;2.47;;;1.10;;
68989;SDS011;56046;47.270;11.368;2023-04-03T00:35:10;2.10;;;1.00;;
68989;SDS011;56046;47.270;11.368;2023-04-03T00:37:35;2.88;;;1.25;;
68989;SDS011;56046;47.270;11.368;2023-04-03T00:40:01;2.37;;;1.00;;
68989;SDS011;56046;47.270;11.368;2023-04-03T00:42:27;3.15;;;1.20;;
68989;SDS011;56046;47.270;11.368;2023-04-03T00:47:17;2.73;;;1.40;;
68989;SDS011;56046;47.270;11.368;2023-04-03T00:49:43;3.13;;;1.00;;
68989;SDS011;56046;47.270;11.368;2023-04-03T00:52:12;4.75;;;1.20;;
68989;SDS011;56046;47.270;11.368;2023-04-03T00:54:39;3.58;;;1.10;;
68989;SDS011;56046;47.270;11.368;2023-04-03T00:57:05;2.27;;;0.90;;
68989;SDS011;56046;47.270;11.368;2023-04-03T00:59:32;2.92;;;1.20;;
68989;SDS011;56046;47.270;11.368;2023-04-03T01:01:58;3.72;;;1.30;;
68989;SDS011;56046;47.270;11.368;2023-04-03T01:04:28;5.43;;;1.95;;
68989;SDS011;56046;47.270;11.368;2023-04-03T01:06:55;5.30;;;1.83;;
68989;SDS011;56046;47.270;11.368;2023-04-03T01:09:21;2.78;;;1.40;;
68989;SDS011;56046;47.270;11.368;2023-04-03T01:11:46;2.45;;;1.23;;
68989;SDS011;56046;47.270;11.368;2023-04-03T01:14:12;3.97;;;1.40;;
68989;SDS011;56046;47.270;11.368;2023-04-03T01:16:37;2.93;;;1.17;;
68989;SDS011;56046;47.270;11.368;2023-04-03T01:19:02;2.20;;;1.20;;
68989;SDS011;56046;47.270;11.368;2023-04-03T01:24:33;2.53;;;1.10;;
68989;SDS011;56046;47.270;11.368;2023-04-03T01:26:59;2.75;;;0.93;;
68989;SDS011;56046;47.270;11.368;2023-04-03T01:29:24;3.10;;;1.20;;
68989;SDS011;56046;47.270;11.368;2023-04-03T01:31:53;2.87;;;1.10;;
68989;SDS011;56046;47.270;11.368;2023-04-03T01:34:19;4.00;;;1.40;;
68989;SDS011;56046;47.270;11.368;2023-04-03T01:36:44;2.83;;;1.05;;
68989;SDS011;56046;47.270;11.368;2023-04-03T01:39:10;2.43;;;1.03;;
68989;SDS011;56046;47.270;11.368;2023-04-03T01:41:35;2.93;;;1.37;;
68989;SDS011;56046;47.270;11.368;2023-04-03T01:44:01;2.43;;;1.00;;
68989;SDS011;56046;47.270;11.368;2023-04-03T01:46:26;4.47;;;1.50;;
68989;SDS011;56046;47.270;11.368;2023-04-03T01:48:51;2.83;;;1.25;;
68989;SDS011;56046;47.270;11.368;2023-04-03T01:51:16;2.87;;;1.10;;
68989;SDS011;56046;47.270;11.368;2023-04-03T01:53:42;2.13;;;0.93;;
68989;SDS011;56046;47.270;11.368;2023-04-03T01:56:07;2.97;;;1.30;;
68989;SDS011;56046;47.270;11.368;2023-04-03T01:58:33;2.70;;;1.20;;
68989;SDS011;56046;47.270;11.368;2023-04-03T02:00:58;2.50;;;1.17;;
68989;SDS011;56046;47.270;11.368;2023-04-03T02:03:23;1.98;;;1.13;;
68989;SDS011;56046;47.270;11.368;2023-04-03T02:05:49;3.27;;;1.10;;
68989;SDS011;56046;47.270;11.368;2023-04-03T02:08:14;3.53;;;1.20;;
68989;SDS011;56046;47.270;11.368;2023-04-03T02:10:42;2.83;;;1.00;;
68989;SDS011;56046;47.270;11.368;2023-04-03T02:13:08;2.43;;;1.10;;
68989;SDS011;56046;47.270;11.368;2023-04-03T02:15:33;2.80;;;1.43;;
68989;SDS011;56046;47.270;11.368;2023-04-03T02:17:58;3.60;;;1.50;;
68989;SDS011;56046;47.270;11.368;2023-04-03T02:20:23;2.67;;;1.10;;
68989;SDS011;56046;47.270;11.368;2023-04-03T02:22:49;2.43;;;1.10;;
68989;SDS011;56046;47.270;11.368;2023-04-03T02:25:15;3.92;;;1.30;;
68989;SDS011;56046;47.270;11.368;2023-04-03T02:27:42;3.22;;;1.30;;
68989;SDS011;56046;47.270;11.368;2023-04-03T02:30:07;3.50;;;1.57;;
68989;SDS011;56046;47.270;11.368;2023-04-03T02:32:35;3.67;;;1.50;;
68989;SDS011;56046;47.270;11.368;2023-04-03T02:35:00;3.57;;;1.60;;
68989;SDS011;56046;47.270;11.368;2023-04-03T02:37:26;3.23;;;1.20;;
68989;SDS011;56046;47.270;11.368;2023-04-03T02:39:51;3.70;;;1.50;;
68989;SDS011;56046;47.270;11.368;2023-04-03T02:42:16;3.20;;;1.30;;
68989;SDS011;56046;47.270;11.368;2023-04-03T02:44:42;3.40;;;1.50;;
68989;SDS011;56046;47.270;11.368;2023-04-03T02:47:07;3.53;;;1.30;;
68989;SDS011;56046;47.270;11.368;2023-04-03T02:49:32;3.47;;;1.40;;
68989;SDS011;56046;47.270;11.368;2023-04-03T02:51:57;3.87;;;1.50;;
68989;SDS011;56046;47.270;11.368;2023-04-03T02:54:23;3.37;;;1.43;;
68989;SDS011;56046;47.270;11.368;2023-04-03T02:56:49;3.95;;;1.20;;
68989;SDS011;56046;47.270;11.368;2023-04-03T02:59:15;2.87;;;1.20;;
68989;SDS011;56046;47.270;11.368;2023-04-03T03:01:40;2.50;;;1.13;;
68989;SDS011;56046;47.270;11.368;2023-04-03T03:04:06;2.95;;;1.10;;
68989;SDS011;56046;47.270;11.368;2023-04-03T03:06:31;3.20;;;1.40;;
68989;SDS011;56046;47.270;11.368;2023-04-03T03:08:56;3.17;;;1.37;;
68989;SDS011;56046;47.270;11.368;2023-04-03T03:11:21;2.83;;;1.33;;
68989;SDS011;56046;47.270;11.368;2023-04-03T03:13:47;5.47;;;1.20;;
68989;SDS011;56046;47.270;11.368;2023-04-03T03:16:12;3.20;;;1.20;;
68989;SDS011;56046;47.270;11.368;2023-04-03T03:18:37;4.40;;;1.20;;
68989;SDS011;56046;47.270;11.368;2023-04-03T03:21:03;3.47;;;1.50;;
68989;SDS011;56046;47.270;11.368;2023-04-03T03:23:29;3.00;;;1.20;;
68989;SDS011;56046;47.270;11.368;2023-04-03T03:25:55;8.10;;;5.47;;
68989;SDS011;56046;47.270;11.368;2023-04-03T03:28:21;3.10;;;1.70;;
68989;SDS011;56046;47.270;11.368;2023-04-03T03:30:46;3.93;;;1.57;;
68989;SDS011;56046;47.270;11.368;2023-04-03T03:33:11;3.60;;;1.50;;
68989;SDS011;56046;47.270;11.368;2023-04-03T03:35:37;3.00;;;1.30;;
68989;SDS011;56046;47.270;11.368;2023-04-03T03:38:02;3.40;;;1.30;;
68989;SDS011;56046;47.270;11.368;2023-04-03T03:40:27;3.43;;;1.50;;
68989;SDS011;56046;47.270;11.368;2023-04-03T03:42:53;3.10;;;1.60;;
68989;SDS011;56046;47.270;11.368;2023-04-03T03:45:18;3.57;;;1.50;;
68989;SDS011;56046;47.270;11.368;2023-04-03T03:47:43;2.80;;;1.13;;
68989;SDS011;56046;47.270;11.368;2023-04-03T03:50:09;2.47;;;1.07;;
68989;SDS011;56046;47.270;11.368;2023-04-03T03:52:34;2.33;;;1.20;;
68989;SDS011;56046;47.270;11.368;2023-04-03T03:54:59;3.17;;;1.30;;
68989;SDS011;56046;47.270;11.368;2023-04-03T03:57:25;3.57;;;1.47;;
68989;SDS011;56046;47.270;11.368;2023-04-03T03:59:51;2.90;;;1.47;;
68989;SDS011;56046;47.270;11.368;2023-04-03T04:02:17;3.67;;;1.50;;
68989;SDS011;56046;47.270;11.368;2023-04-03T04:04:43;3.47;;;1.57;;
68989;SDS011;56046;47.270;11.368;2023-04-03T04:07:08;4.10;;;1.53;;
68989;SDS011;56046;47.270;11.368;2023-04-03T04:09:33;3.53;;;1.67;;
68989;SDS011;56046;47.270;11.368;2023-04-03T04:11:58;4.00;;;1.60;;
68989;SDS011;56046;47.270;11.368;2023-04-03T04:14:24;5.40;;;2.45;;
68989;SDS011;56046;47.270;11.368;2023-04-03T04:16:49;6.63;;;2.20;;
68989;SDS011;56046;47.270;11.368;2023-04-03T04:19:14;6.50;;;2.90;;
68989;SDS011;56046;47.270;11.368;2023-04-03T04:21:40;7.40;;;3.17;;
68989;SDS011;56046;47.270;11.368;2023-04-03T04:24:06;5.90;;;2.90;;
68989;SDS011;56046;47.270;11.368;2023-04-03T04:26:32;6.00;;;2.30;;
68989;SDS011;56046;47.270;11.368;2023-04-03T04:28:57;4.87;;;2.10;;
68989;SDS011;56046;47.270;11.368;2023-04-03T04:31:22;4.40;;;2.00;;
68989;SDS011;56046;47.270;11.368;2023-04-03T04:33:47;5.97;;;2.30;;
68989;SDS011;56046;47.270;11.368;2023-04-03T04:36:13;5.47;;;2.63;;
68989;SDS011;56046;47.270;11.368;2023-04-03T04:38:39;6.30;;;2.83;;
68989;SDS011;56046;47.270;11.368;2023-04-03T04:41:05;6.17;;;2.67;;
68989;SDS011;56046;47.270;11.368;2023-04-03T04:43:30;4.90;;;2.17;;
68989;SDS011;56046;47.270;11.368;2023-04-03T04:46:05;5.97;;;2.58;;
68989;SDS011;56046;47.270;11.368;2023-04-03T04:48:31;5.63;;;2.63;;
68989;SDS011;56046;47.270;11.368;2023-04-03T04:50:56;6.43;;;2.78;;
68989;SDS011;56046;47.270;11.368;2023-04-03T04:53:21;7.17;;;3.17;;
68989;SDS011;56046;47.270;11.368;2023-04-03T04:55:47;7.33;;;3.60;;
68989;SDS011;56046;47.270;11.368;2023-04-03T04:58:12;7.90;;;3.50;;
68989;SDS011;56046;47.270;11.368;2023-04-03T05:00:38;7.07;;;2.73;;
68989;SDS011;56046;47.270;11.368;2023-04-03T05:03:03;6.57;;;3.10;;
68989;SDS011;56046;47.270;11.368;2023-04-03T05:05:28;7.63;;;3.40;;
68989;SDS011;56046;47.270;11.368;2023-04-03T05:07:53;7.13;;;2.90;;
68989;SDS011;56046;47.270;11.368;2023-04-03T05:10:19;7.45;;;3.10;;
68989;SDS011;56046;47.270;11.368;2023-04-03T05:12:45;7.93;;;3.60;;
68989;SDS011;56046;47.270;11.368;2023-04-03T05:15:10;9.25;;;4.03;;
68989;SDS011;56046;47.270;11.368;2023-04-03T05:17:36;8.68;;;3.55;;
68989;SDS011;56046;47.270;11.368;2023-04-03T05:20:01;10.50;;;5.20;;
68989;SDS011;56046;47.270;11.368;2023-04-03T05:22:27;7.93;;;3.37;;
68989;SDS011;56046;47.270;11.368;2023-04-03T05:24:52;12.23;;;6.07;;
68989;SDS011;56046;47.270;11.368;2023-04-03T05:27:17;10.67;;;4.87;;
68989;SDS011;56046;47.270;11.368;2023-04-03T05:29:42;7.93;;;3.53;;
68989;SDS011;56046;47.270;11.368;2023-04-03T05:32:09;8.07;;;3.60;;
68989;SDS011;56046;47.270;11.368;2023-04-03T05:34:34;6.88;;;3.50;;
68989;SDS011;56046;47.270;11.368;2023-04-03T05:36:59;7.63;;;3.40;;
68989;SDS011;56046;47.270;11.368;2023-04-03T05:39:25;7.30;;;3.10;;
68989;SDS011;56046;47.270;11.368;2023-04-03T05:41:50;6.93;;;3.37;;
68989;SDS011;56046;47.270;11.368;2023-04-03T05:44:15;7.03;;;3.13;;
68989;SDS011;56046;47.270;11.368;2023-04-03T05:46:41;6.87;;;3.40;;
68989;SDS011;56046;47.270;11.368;2023-04-03T05:49:06;6.97;;;3.10;;
68989;SDS011;56046;47.270;11.368;2023-04-03T05:51:34;6.83;;;3.20;;
68989;SDS011;56046;47.270;11.368;2023-04-03T05:54:02;7.05;;;3.47;;
68989;SDS011;56046;47.270;11.368;2023-04-03T05:56:29;9.63;;;4.00;;
68989;SDS011;56046;47.270;11.368;2023-04-03T05:58:55;7.10;;;3.67;;
68989;SDS011;56046;47.270;11.368;2023-04-03T06:01:20;8.40;;;3.40;;
68989;SDS011;56046;47.270;11.368;2023-04-03T06:03:45;7.77;;;3.43;;
68989;SDS011;56046;47.270;11.368;2023-04-03T06:06:12;7.40;;;3.80;;
68989;SDS011;56046;47.270;11.368;2023-04-03T06:08:38;6.95;;;3.42;;
68989;SDS011;56046;47.270;11.368;2023-04-03T06:11:03;8.40;;;3.60;;
68989;SDS011;56046;47.270;11.368;2023-04-03T06:13:28;7.93;;;3.83;;
68989;SDS011;56046;47.270;11.368;2023-04-03T06:15:54;7.78;;;3.58;;
68989;SDS011;56046;47.270;11.368;2023-04-03T06:18:20;7.83;;;3.63;;
68989;SDS011;56046;47.270;11.368;2023-04-03T06:20:45;7.83;;;3.70;;
68989;SDS011;56046;47.270;11.368;2023-04-03T06:23:10;7.77;;;3.73;;
68989;SDS011;56046;47.270;11.368;2023-04-03T06:25:36;8.70;;;4.22;;
68989;SDS011;56046;47.270;11.368;2023-04-03T06:28:02;10.23;;;4.87;;
68989;SDS011;56046;47.270;11.368;2023-04-03T06:30:27;10.73;;;4.47;;
68989;SDS011;56046;47.270;11.368;2023-04-03T06:32:52;10.70;;;4.53;;
68989;SDS011;56046;47.270;11.368;2023-04-03T06:35:18;10.00;;;4.10;;
68989;SDS011;56046;47.270;11.368;2023-04-03T06:37:43;8.67;;;4.27;;
68989;SDS011;56046;47.270;11.368;2023-04-03T06:40:13;11.33;;;4.43;;
68989;SDS011;56046;47.270;11.368;2023-04-03T06:42:40;9.85;;;4.53;;
68989;SDS011;56046;47.270;11.368;2023-04-03T06:45:06;10.63;;;4.27;;
68989;SDS011;56046;47.270;11.368;2023-04-03T06:47:32;10.00;;;4.40;;
68989;SDS011;56046;47.270;11.368;2023-04-03T06:49:58;7.83;;;3.57;;
68989;SDS011;56046;47.270;11.368;2023-04-03T06:52:23;9.50;;;4.10;;
68989;SDS011;56046;47.270;11.368;2023-04-03T06:54:48;11.63;;;4.40;;
68989;SDS011;56046;47.270;11.368;2023-04-03T06:57:13;10.97;;;5.60;;
68989;SDS011;56046;47.270;11.368;2023-04-03T06:59:40;9.35;;;4.63;;
68989;SDS011;56046;47.270;11.368;2023-04-03T07:02:06;10.38;;;5.20;;
68989;SDS011;56046;47.270;11.368;2023-04-03T07:04:31;10.10;;;5.20;;
68989;SDS011;56046;47.270;11.368;2023-04-03T07:06:56;9.40;;;5.40;;
68989;SDS011;56046;47.270;11.368;2023-04-03T07:09:22;12.37;;;6.50;;
68989;SDS011;56046;47.270;11.368;2023-04-03T07:11:47;9.57;;;4.80;;
68989;SDS011;56046;47.270;11.368;2023-04-03T07:14:12;12.03;;;5.07;;
68989;SDS011;56046;47.270;11.368;2023-04-03T07:16:38;25.17;;;10.43;;
68989;SDS011;56046;47.270;11.368;2023-04-03T07:19:03;10.27;;;4.53;;
68989;SDS011;56046;47.270;11.368;2023-04-03T07:21:28;9.73;;;4.97;;
68989;SDS011;56046;47.270;11.368;2023-04-03T07:23:54;10.30;;;5.23;;
68989;SDS011;56046;47.270;11.368;2023-04-03T07:26:20;9.77;;;4.47;;
68989;SDS011;56046;47.270;11.368;2023-04-03T07:28:46;10.23;;;4.57;;
68989;SDS011;56046;47.270;11.368;2023-04-03T07:31:13;8.75;;;4.38;;
68989;SDS011;56046;47.270;11.368;2023-04-03T07:33:40;11.38;;;4.90;;
68989;SDS011;56046;47.270;11.368;2023-04-03T07:36:06;7.93;;;3.97;;
68989;SDS011;56046;47.270;11.368;2023-04-03T07:38:32;9.40;;;4.03;;
68989;SDS011;56046;47.270;11.368;2023-04-03T07:40:57;9.02;;;4.70;;
68989;SDS011;56046;47.270;11.368;2023-04-03T07:43:23;8.40;;;4.40;;
68989;SDS011;56046;47.270;11.368;2023-04-03T07:45:49;9.00;;;4.47;;
68989;SDS011;56046;47.270;11.368;2023-04-03T07:48:16;8.80;;;4.43;;
68989;SDS011;56046;47.270;11.368;2023-04-03T07:50:42;8.00;;;4.00;;
68989;SDS011;56046;47.270;11.368;2023-04-03T07:53:08;7.13;;;3.60;;
68989;SDS011;56046;47.270;11.368;2023-04-03T07:55:33;7.80;;;4.07;;
68989;SDS011;56046;47.270;11.368;2023-04-03T07:57:59;8.33;;;4.00;;
68989;SDS011;56046;47.270;11.368;2023-04-03T08:00:24;8.55;;;4.13;;
68989;SDS011;56046;47.270;11.368;2023-04-03T08:02:50;9.67;;;4.00;;
68989;SDS011;56046;47.270;11.368;2023-04-03T08:05:19;9.05;;;4.22;;
68989;SDS011;56046;47.270;11.368;2023-04-03T08:07:45;8.17;;;3.97;;
68989;SDS011;56046;47.270;11.368;2023-04-03T08:10:11;9.07;;;4.50;;
68989;SDS011;56046;47.270;11.368;2023-04-03T08:12:36;9.33;;;4.47;;
68989;SDS011;56046;47.270;11.368;2023-04-03T08:15:02;9.03;;;4.17;;
68989;SDS011;56046;47.270;11.368;2023-04-03T08:17:28;7.30;;;3.65;;
68989;SDS011;56046;47.270;11.368;2023-04-03T08:19:53;9.57;;;4.10;;
68989;SDS011;56046;47.270;11.368;2023-04-03T08:22:18;7.53;;;3.93;;
68989;SDS011;56046;47.270;11.368;2023-04-03T08:24:44;6.60;;;3.30;;
68989;SDS011;56046;47.270;11.368;2023-04-03T08:27:09;8.13;;;4.00;;
68989;SDS011;56046;47.270;11.368;2023-04-03T08:29:35;8.67;;;3.90;;
68989;SDS011;56046;47.270;11.368;2023-04-03T08:32:02;6.45;;;3.42;;
68989;SDS011;56046;47.270;11.368;2023-04-03T08:34:28;8.53;;;3.80;;
68989;SDS011;56046;47.270;11.368;2023-04-03T08:36:53;7.17;;;3.67;;
68989;SDS011;56046;47.270;11.368;2023-04-03T08:39:18;7.77;;;3.70;;
68989;SDS011;56046;47.270;11.368;2023-04-03T08:41:44;8.77;;;3.80;;
68989;SDS011;56046;47.270;11.368;2023-04-03T08:47:20;8.07;;;3.88;;
68989;SDS011;56046;47.270;11.368;2023-04-03T08:49:59;6.10;;;3.25;;
68989;SDS011;56046;47.270;11.368;2023-04-03T08:57:43;6.88;;;3.60;;
68989;SDS011;56046;47.270;11.368;2023-04-03T09:00:18;7.28;;;3.28;;
68989;SDS011;56046;47.270;11.368;2023-04-03T09:02:47;7.95;;;4.13;;
68989;SDS011;56046;47.270;11.368;2023-04-03T09:05:15;6.78;;;3.60;;
68989;SDS011;56046;47.270;11.368;2023-04-03T09:07:47;7.90;;;3.53;;
68989;SDS011;56046;47.270;11.368;2023-04-03T09:10:14;6.20;;;3.35;;
68989;SDS011;56046;47.270;11.368;2023-04-03T09:12:49;7.22;;;3.38;;
68989;SDS011;56046;47.270;11.368;2023-04-03T09:15:19;9.50;;;4.10;;
68989;SDS011;56046;47.270;11.368;2023-04-03T09:23:19;8.25;;;3.42;;
68989;SDS011;56046;47.270;11.368;2023-04-03T09:25:47;8.95;;;3.58;;
68989;SDS011;56046;47.270;11.368;2023-04-03T09:28:14;7.03;;;3.70;;
68989;SDS011;56046;47.270;11.368;2023-04-03T09:30:39;7.68;;;3.85;;
68989;SDS011;56046;47.270;11.368;2023-04-03T09:33:05;7.93;;;3.23;;
68989;SDS011;56046;47.270;11.368;2023-04-03T09:35:32;7.47;;;3.27;;
68989;SDS011;56046;47.270;11.368;2023-04-03T09:37:59;6.82;;;3.17;;
68989;SDS011;56046;47.270;11.368;2023-04-03T09:42:50;7.70;;;3.57;;
68989;SDS011;56046;47.270;11.368;2023-04-03T09:45:34;7.47;;;3.70;;
68989;SDS011;56046;47.270;11.368;2023-04-03T09:50:32;5.90;;;3.00;;
68989;SDS011;56046;47.270;11.368;2023-04-03T09:52:57;6.90;;;3.78;;
68989;SDS011;56046;47.270;11.368;2023-04-03T09:57:52;6.88;;;2.83;;
68989;SDS011;56046;47.270;11.368;2023-04-03T10:00:22;5.43;;;3.10;;
68989;SDS011;56046;47.270;11.368;2023-04-03T10:02:51;4.28;;;2.58;;
68989;SDS011;56046;47.270;11.368;2023-04-03T10:10:32;4.88;;;2.72;;
68989;SDS011;56046;47.270;11.368;2023-04-03T10:13:05;6.30;;;2.60;;
68989;SDS011;56046;47.270;11.368;2023-04-03T10:15:31;6.70;;;2.90;;
68989;SDS011;56046;47.270;11.368;2023-04-03T10:18:02;5.60;;;3.00;;
68989;SDS011;56046;47.270;11.368;2023-04-03T10:20:33;7.40;;;3.22;;
68989;SDS011;56046;47.270;11.368;2023-04-03T10:28:38;7.23;;;2.50;;
68989;SDS011;56046;47.270;11.368;2023-04-03T10:41:43;5.93;;;2.77;;
68989;SDS011;56046;47.270;11.368;2023-04-03T10:52:22;6.45;;;2.90;;
68989;SDS011;56046;47.270;11.368;2023-04-03T10:57:16;5.28;;;2.70;;
68989;SDS011;56046;47.270;11.368;2023-04-03T11:02:19;5.05;;;2.75;;
68989;SDS011;56046;47.270;11.368;2023-04-03T11:04:48;5.23;;;2.80;;
68989;SDS011;56046;47.270;11.368;2023-04-03T11:07:20;4.95;;;2.90;;
68989;SDS011;56046;47.270;11.368;2023-04-03T11:09:47;4.93;;;2.53;;
68989;SDS011;56046;47.270;11.368;2023-04-03T11:12:18;6.15;;;2.60;;
68989;SDS011;56046;47.270;11.368;2023-04-03T11:14:46;6.18;;;2.72;;
68989;SDS011;56046;47.270;11.368;2023-04-03T11:22:16;4.83;;;2.07;;
68989;SDS011;56046;47.270;11.368;2023-04-03T11:24:50;5.15;;;1.90;;
68989;SDS011;56046;47.270;11.368;2023-04-03T11:27:18;4.05;;;2.10;;
68989;SDS011;56046;47.270;11.368;2023-04-03T11:29:47;3.35;;;1.67;;
68989;SDS011;56046;47.270;11.368;2023-04-03T11:34:45;5.60;;;2.67;;
68989;SDS011;56046;47.270;11.368;2023-04-03T11:37:17;4.55;;;2.28;;
68989;SDS011;56046;47.270;11.368;2023-04-03T11:39:50;4.80;;;2.10;;
68989;SDS011;56046;47.270;11.368;2023-04-03T11:42:24;4.47;;;2.40;;
68989;SDS011;56046;47.270;11.368;2023-04-03T11:44:51;4.75;;;2.30;;
68989;SDS011;56046;47.270;11.368;2023-04-03T11:47:44;5.13;;;2.40;;
68989;SDS011;56046;47.270;11.368;2023-04-03T11:50:30;5.22;;;2.00;;
68989;SDS011;56046;47.270;11.368;2023-04-03T11:52:56;4.30;;;1.88;;
68989;SDS011;56046;47.270;11.368;2023-04-03T12:16:04;3.33;;;1.83;;
68989;SDS011;56046;47.270;11.368;2023-04-03T12:20:58;3.05;;;1.70;;
68989;SDS011;56046;47.270;11.368;2023-04-03T12:23:28;3.75;;;1.95;;
68989;SDS011;56046;47.270;11.368;2023-04-03T12:25:59;5.78;;;1.80;;
68989;SDS011;56046;47.270;11.368;2023-04-03T12:28:24;3.50;;;1.70;;
68989;SDS011;56046;47.270;11.368;2023-04-03T12:30:50;3.38;;;1.50;;
68989;SDS011;56046;47.270;11.368;2023-04-03T12:33:18;2.97;;;1.67;;
68989;SDS011;56046;47.270;11.368;2023-04-03T12:35:56;2.55;;;1.58;;
68989;SDS011;56046;47.270;11.368;2023-04-03T12:46:07;2.78;;;1.58;;
68989;SDS011;56046;47.270;11.368;2023-04-03T12:48:56;2.85;;;1.60;;
68989;SDS011;56046;47.270;11.368;2023-04-03T12:51:31;3.03;;;1.73;;
68989;SDS011;56046;47.270;11.368;2023-04-03T12:54:01;3.75;;;1.77;;
68989;SDS011;56046;47.270;11.368;2023-04-03T12:56:28;3.42;;;1.90;;
68989;SDS011;56046;47.270;11.368;2023-04-03T12:58:55;2.88;;;1.55;;
68989;SDS011;56046;47.270;11.368;2023-04-03T13:01:23;4.85;;;1.50;;
68989;SDS011;56046;47.270;11.368;2023-04-03T13:03:53;3.63;;;1.77;;
68989;SDS011;56046;47.270;11.368;2023-04-03T13:06:21;4.60;;;1.70;;
68989;SDS011;56046;47.270;11.368;2023-04-03T13:08:54;5.63;;;2.13;;
68989;SDS011;56046;47.270;11.368;2023-04-03T13:11:19;4.15;;;1.95;;
68989;SDS011;56046;47.270;11.368;2023-04-03T13:14:04;4.80;;;2.03;;
68989;SDS011;56046;47.270;11.368;2023-04-03T13:16:30;5.47;;;2.10;;
68989;SDS011;56046;47.270;11.368;2023-04-03T13:18:56;3.60;;;1.73;;
68989;SDS011;56046;47.270;11.368;2023-04-03T13:21:28;4.13;;;2.42;;
68989;SDS011;56046;47.270;11.368;2023-04-03T13:23:58;4.47;;;1.97;;
68989;SDS011;56046;47.270;11.368;2023-04-03T13:26:26;4.80;;;2.05;;
68989;SDS011;56046;47.270;11.368;2023-04-03T13:28:52;5.38;;;2.28;;
68989;SDS011;56046;47.270;11.368;2023-04-03T13:31:19;5.00;;;1.67;;
68989;SDS011;56046;47.270;11.368;2023-04-03T13:34:02;3.42;;;1.48;;
68989;SDS011;56046;47.270;11.368;2023-04-03T13:36:31;4.03;;;1.50;;
68989;SDS011;56046;47.270;11.368;2023-04-03T13:41:33;4.13;;;2.13;;
68989;SDS011;56046;47.270;11.368;2023-04-03T13:46:43;4.70;;;2.25;;
68989;SDS011;56046;47.270;11.368;2023-04-03T13:51:52;3.27;;;1.80;;
68989;SDS011;56046;47.270;11.368;2023-04-03T13:54:20;4.35;;;2.20;;
68989;SDS011;56046;47.270;11.368;2023-04-03T13:56:51;4.50;;;2.20;;
68989;SDS011;56046;47.270;11.368;2023-04-03T14:01:46;3.40;;;1.70;;
68989;SDS011;56046;47.270;11.368;2023-04-03T14:04:20;4.95;;;2.00;;
68989;SDS011;56046;47.270;11.368;2023-04-03T14:06:46;4.15;;;2.05;;
68989;SDS011;56046;47.270;11.368;2023-04-03T14:09:12;5.23;;;2.20;;
68989;SDS011;56046;47.270;11.368;2023-04-03T14:11:37;3.55;;;1.95;;
68989;SDS011;56046;47.270;11.368;2023-04-03T14:14:06;3.43;;;1.60;;
68989;SDS011;56046;47.270;11.368;2023-04-03T14:16:37;4.00;;;2.00;;
68989;SDS011;56046;47.270;11.368;2023-04-03T14:19:03;3.92;;;2.13;;
68989;SDS011;56046;47.270;11.368;2023-04-03T14:21:28;2.97;;;1.90;;
68989;SDS011;56046;47.270;11.368;2023-04-03T14:23:54;3.85;;;1.50;;
68989;SDS011;56046;47.270;11.368;2023-04-03T14:26:20;4.15;;;1.90;;
68989;SDS011;56046;47.270;11.368;2023-04-03T14:28:47;3.45;;;1.98;;
68989;SDS011;56046;47.270;11.368;2023-04-03T14:31:13;3.83;;;1.92;;
68989;SDS011;56046;47.270;11.368;2023-04-03T14:33:39;4.15;;;2.00;;
68989;SDS011;56046;47.270;11.368;2023-04-03T14:36:12;3.20;;;1.90;;
68989;SDS011;56046;47.270;11.368;2023-04-03T14:38:38;3.70;;;1.80;;
68989;SDS011;56046;47.270;11.368;2023-04-03T14:41:03;3.33;;;1.77;;
68989;SDS011;56046;47.270;11.368;2023-04-03T14:43:28;3.80;;;1.93;;
68989;SDS011;56046;47.270;11.368;2023-04-03T14:45:53;3.07;;;1.70;;
68989;SDS011;56046;47.270;11.368;2023-04-03T14:48:21;3.50;;;2.00;;
68989;SDS011;56046;47.270;11.368;2023-04-03T14:50:46;2.95;;;1.88;;
68989;SDS011;56046;47.270;11.368;2023-04-03T14:53:12;4.40;;;2.23;;
68989;SDS011;56046;47.270;11.368;2023-04-03T14:55:39;4.32;;;1.80;;
68989;SDS011;56046;47.270;11.368;2023-04-03T14:58:05;3.95;;;1.80;;
68989;SDS011;56046;47.270;11.368;2023-04-03T15:00:30;6.68;;;2.25;;
68989;SDS011;56046;47.270;11.368;2023-04-03T15:02:55;3.57;;;2.03;;
68989;SDS011;56046;47.270;11.368;2023-04-03T15:05:21;4.73;;;1.90;;
68989;SDS011;56046;47.270;11.368;2023-04-03T15:07:47;3.63;;;2.10;;
68989;SDS011;56046;47.270;11.368;2023-04-03T15:10:21;4.78;;;2.40;;
68989;SDS011;56046;47.270;11.368;2023-04-03T15:12:47;3.80;;;1.75;;
68989;SDS011;56046;47.270;11.368;2023-04-03T15:15:12;3.75;;;1.88;;
68989;SDS011;56046;47.270;11.368;2023-04-03T15:17:38;3.65;;;1.73;;
68989;SDS011;56046;47.270;11.368;2023-04-03T15:20:06;3.00;;;1.60;;
68989;SDS011;56046;47.270;11.368;2023-04-03T15:22:36;3.50;;;1.40;;
68989;SDS011;56046;47.270;11.368;2023-04-03T15:25:01;3.47;;;1.53;;
68989;SDS011;56046;47.270;11.368;2023-04-03T15:27:28;2.63;;;1.40;;
68989;SDS011;56046;47.270;11.368;2023-04-03T15:29:53;4.03;;;1.80;;
68989;SDS011;56046;47.270;11.368;2023-04-03T15:32:19;6.70;;;2.53;;
68989;SDS011;56046;47.270;11.368;2023-04-03T15:34:44;4.43;;;1.97;;
68989;SDS011;56046;47.270;11.368;2023-04-03T15:37:10;4.10;;;2.08;;
68989;SDS011;56046;47.270;11.368;2023-04-03T15:39:35;3.47;;;1.90;;
68989;SDS011;56046;47.270;11.368;2023-04-03T15:42:00;3.40;;;1.63;;
68989;SDS011;56046;47.270;11.368;2023-04-03T15:44:30;3.72;;;1.80;;
68989;SDS011;56046;47.270;11.368;2023-04-03T15:46:56;2.93;;;1.40;;
68989;SDS011;56046;47.270;11.368;2023-04-03T15:49:23;4.30;;;1.55;;
68989;SDS011;56046;47.270;11.368;2023-04-03T15:51:48;4.10;;;2.10;;
68989;SDS011;56046;47.270;11.368;2023-04-03T15:54:13;4.15;;;1.75;;
68989;SDS011;56046;47.270;11.368;2023-04-03T15:56:39;3.20;;;1.50;;
68989;SDS011;56046;47.270;11.368;2023-04-03T15:59:04;3.05;;;1.63;;
68989;SDS011;56046;47.270;11.368;2023-04-03T16:01:30;3.05;;;1.50;;
68989;SDS011;56046;47.270;11.368;2023-04-03T16:03:56;3.00;;;1.60;;
68989;SDS011;56046;47.270;11.368;2023-04-03T16:06:21;3.37;;;1.73;;
68989;SDS011;56046;47.270;11.368;2023-04-03T16:08:49;4.22;;;1.70;;
68989;SDS011;56046;47.270;11.368;2023-04-03T16:11:14;5.20;;;1.97;;
68989;SDS011;56046;47.270;11.368;2023-04-03T16:13:39;3.50;;;1.98;;
68989;SDS011;56046;47.270;11.368;2023-04-03T16:16:05;4.43;;;2.20;;
68989;SDS011;56046;47.270;11.368;2023-04-03T16:18:31;4.50;;;2.20;;
68989;SDS011;56046;47.270;11.368;2023-04-03T16:20:56;3.03;;;1.73;;